sensor_id;sensor_type;location;lat;lon;timestamp;P1;durP1;ratioP1;P2;durP2;ratioP2
24685;SDS011;12804;51.176;4.452;2024-02-15T00:00:21;10.95;;;5.15;;
24685;SDS011;12804;51.176;4.452;2024-02-15T00:02:47;10.45;;;4.00;;
24685;SDS011;12804;51.176;4.452;2024-02-15T00:05:14;10.98;;;4.30;;
24685;SDS011;12804;51.176;4.452;2024-02-15T00:07:42;10.88;;;4.45;;
24685;SDS011;12804;51.176;4.452;2024-02-15T00:10:09;13.23;;;4.15;;
24685;SDS011;12804;51.176;4.452;2024-02-15T00:12:35;9.85;;;4.15;;
24685;SDS011;12804;51.176;4.452;2024-02-15T00:15:01;13.55;;;4.82;;
24685;SDS011;12804;51.176;4.452;2024-02-15T00:17:27;8.77;;;4.03;;
24685;SDS011;12804;51.176;4.452;2024-02-15T00:19:54;12.60;;;4.13;;
24685;SDS011;12804;51.176;4.452;2024-02-15T00:22:20;7.60;;;3.83;;
24685;SDS011;12804;51.176;4.452;2024-02-15T00:24:46;9.38;;;4.30;;
24685;SDS011;12804;51.176;4.452;2024-02-15T00:27:14;10.73;;;4.18;;
24685;SDS011;12804;51.176;4.452;2024-02-15T00:29:41;8.07;;;4.25;;
24685;SDS011;12804;51.176;4.452;2024-02-15T00:32:08;12.57;;;4.07;;
24685;SDS011;12804;51.176;4.452;2024-02-15T00:34:36;10.07;;;3.95;;
24685;SDS011;12804;51.176;4.452;2024-02-15T00:37:04;9.07;;;3.80;;
24685;SDS011;12804;51.176;4.452;2024-02-15T00:39:30;8.02;;;3.65;;
24685;SDS011;12804;51.176;4.452;2024-02-15T00:41:56;11.23;;;4.32;;
24685;SDS011;12804;51.176;4.452;2024-02-15T00:44:25;8.93;;;3.70;;
24685;SDS011;12804;51.176;4.452;2024-02-15T00:46:52;8.57;;;3.25;;
24685;SDS011;12804;51.176;4.452;2024-02-15T00:49:18;10.50;;;3.58;;
24685;SDS011;12804;51.176;4.452;2024-02-15T00:51:47;11.10;;;4.15;;
24685;SDS011;12804;51.176;4.452;2024-02-15T00:54:13;8.75;;;3.47;;
24685;SDS011;12804;51.176;4.452;2024-02-15T00:56:40;10.35;;;3.70;;
24685;SDS011;12804;51.176;4.452;2024-02-15T00:59:06;9.27;;;3.25;;
24685;SDS011;12804;51.176;4.452;2024-02-15T01:01:31;9.63;;;4.20;;
24685;SDS011;12804;51.176;4.452;2024-02-15T01:03:57;10.15;;;3.67;;
24685;SDS011;12804;51.176;4.452;2024-02-15T01:06:23;5.50;;;3.45;;
24685;SDS011;12804;51.176;4.452;2024-02-15T01:08:49;9.90;;;4.20;;
24685;SDS011;12804;51.176;4.452;2024-02-15T01:11:15;13.45;;;5.03;;
24685;SDS011;12804;51.176;4.452;2024-02-15T01:13:42;8.55;;;3.50;;
24685;SDS011;12804;51.176;4.452;2024-02-15T01:16:09;13.27;;;3.78;;
24685;SDS011;12804;51.176;4.452;2024-02-15T01:18:35;12.68;;;4.05;;
24685;SDS011;12804;51.176;4.452;2024-02-15T01:21:01;7.13;;;3.75;;
24685;SDS011;12804;51.176;4.452;2024-02-15T01:23:27;13.75;;;3.80;;
24685;SDS011;12804;51.176;4.452;2024-02-15T01:25:53;9.23;;;3.33;;
24685;SDS011;12804;51.176;4.452;2024-02-15T01:28:18;11.55;;;4.15;;
24685;SDS011;12804;51.176;4.452;2024-02-15T01:30:44;11.07;;;4.00;;
24685;SDS011;12804;51.176;4.452;2024-02-15T01:33:11;7.15;;;3.20;;
24685;SDS011;12804;51.176;4.452;2024-02-15T01:35:37;12.48;;;3.40;;
24685;SDS011;12804;51.176;4.452;2024-02-15T01:38:03;12.52;;;3.55;;
24685;SDS011;12804;51.176;4.452;2024-02-15T01:40:30;10.57;;;3.65;;
24685;SDS011;12804;51.176;4.452;2024-02-15T01:42:56;8.10;;;3.72;;
24685;SDS011;12804;51.176;4.452;2024-02-15T01:45:23;8.25;;;3.17;;
24685;SDS011;12804;51.176;4.452;2024-02-15T01:47:51;10.98;;;3.63;;
24685;SDS011;12804;51.176;4.452;2024-02-15T01:50:18;12.45;;;3.85;;
24685;SDS011;12804;51.176;4.452;2024-02-15T01:52:47;12.27;;;3.17;;
24685;SDS011;12804;51.176;4.452;2024-02-15T01:55:15;10.65;;;3.35;;
24685;SDS011;12804;51.176;4.452;2024-02-15T01:57:44;11.38;;;3.35;;
24685;SDS011;12804;51.176;4.452;2024-02-15T02:00:13;8.27;;;3.70;;
24685;SDS011;12804;51.176;4.452;2024-02-15T02:02:42;9.73;;;3.35;;
24685;SDS011;12804;51.176;4.452;2024-02-15T02:05:10;9.40;;;3.30;;
24685;SDS011;12804;51.176;4.452;2024-02-15T02:07:36;9.07;;;3.08;;
24685;SDS011;12804;51.176;4.452;2024-02-15T02:10:03;6.55;;;3.00;;
24685;SDS011;12804;51.176;4.452;2024-02-15T02:12:29;9.32;;;3.13;;
24685;SDS011;12804;51.176;4.452;2024-02-15T02:14:56;8.45;;;3.13;;
24685;SDS011;12804;51.176;4.452;2024-02-15T02:17:22;9.23;;;2.85;;
24685;SDS011;12804;51.176;4.452;2024-02-15T02:19:48;9.38;;;2.95;;
24685;SDS011;12804;51.176;4.452;2024-02-15T02:22:17;10.48;;;3.03;;
24685;SDS011;12804;51.176;4.452;2024-02-15T02:24:59;9.35;;;2.67;;
24685;SDS011;12804;51.176;4.452;2024-02-15T02:27:35;11.13;;;3.38;;
24685;SDS011;12804;51.176;4.452;2024-02-15T02:30:03;6.72;;;2.53;;
24685;SDS011;12804;51.176;4.452;2024-02-15T02:32:43;6.68;;;2.50;;
24685;SDS011;12804;51.176;4.452;2024-02-15T02:35:09;8.93;;;2.70;;
24685;SDS011;12804;51.176;4.452;2024-02-15T02:37:41;6.25;;;2.28;;
24685;SDS011;12804;51.176;4.452;2024-02-15T02:40:08;6.43;;;2.53;;
24685;SDS011;12804;51.176;4.452;2024-02-15T02:42:56;8.25;;;2.63;;
24685;SDS011;12804;51.176;4.452;2024-02-15T02:45:21;9.90;;;2.90;;
24685;SDS011;12804;51.176;4.452;2024-02-15T02:47:51;9.32;;;2.97;;
24685;SDS011;12804;51.176;4.452;2024-02-15T02:50:18;11.60;;;3.08;;
24685;SDS011;12804;51.176;4.452;2024-02-15T02:52:45;12.13;;;2.70;;
24685;SDS011;12804;51.176;4.452;2024-02-15T02:55:13;9.93;;;3.05;;
24685;SDS011;12804;51.176;4.452;2024-02-15T02:57:40;9.90;;;2.58;;
24685;SDS011;12804;51.176;4.452;2024-02-15T03:00:08;6.95;;;2.55;;
24685;SDS011;12804;51.176;4.452;2024-02-15T03:02:43;8.15;;;2.58;;
24685;SDS011;12804;51.176;4.452;2024-02-15T03:05:09;9.43;;;3.30;;
24685;SDS011;12804;51.176;4.452;2024-02-15T03:07:37;7.47;;;2.63;;
24685;SDS011;12804;51.176;4.452;2024-02-15T03:10:06;8.25;;;2.83;;
24685;SDS011;12804;51.176;4.452;2024-02-15T03:12:33;12.90;;;3.40;;
24685;SDS011;12804;51.176;4.452;2024-02-15T03:15:03;14.13;;;2.90;;
24685;SDS011;12804;51.176;4.452;2024-02-15T03:17:29;7.75;;;2.42;;
24685;SDS011;12804;51.176;4.452;2024-02-15T03:19:58;12.90;;;3.17;;
24685;SDS011;12804;51.176;4.452;2024-02-15T03:22:24;11.60;;;3.85;;
24685;SDS011;12804;51.176;4.452;2024-02-15T03:24:51;10.25;;;2.60;;
24685;SDS011;12804;51.176;4.452;2024-02-15T03:27:17;6.85;;;2.58;;
24685;SDS011;12804;51.176;4.452;2024-02-15T03:29:43;8.77;;;2.88;;
24685;SDS011;12804;51.176;4.452;2024-02-15T03:32:09;11.63;;;2.88;;
24685;SDS011;12804;51.176;4.452;2024-02-15T03:34:36;8.35;;;3.10;;
24685;SDS011;12804;51.176;4.452;2024-02-15T03:37:04;11.20;;;3.03;;
24685;SDS011;12804;51.176;4.452;2024-02-15T03:39:30;8.65;;;2.67;;
24685;SDS011;12804;51.176;4.452;2024-02-15T03:41:58;8.70;;;2.92;;
24685;SDS011;12804;51.176;4.452;2024-02-15T03:44:24;10.63;;;3.45;;
24685;SDS011;12804;51.176;4.452;2024-02-15T03:46:51;8.52;;;3.28;;
24685;SDS011;12804;51.176;4.452;2024-02-15T03:49:18;7.47;;;3.08;;
24685;SDS011;12804;51.176;4.452;2024-02-15T03:51:44;11.98;;;4.00;;
24685;SDS011;12804;51.176;4.452;2024-02-15T03:54:11;11.23;;;4.30;;
24685;SDS011;12804;51.176;4.452;2024-02-15T03:56:50;9.05;;;3.50;;
24685;SDS011;12804;51.176;4.452;2024-02-15T03:59:20;8.47;;;3.77;;
24685;SDS011;12804;51.176;4.452;2024-02-15T04:01:50;12.15;;;4.55;;
24685;SDS011;12804;51.176;4.452;2024-02-15T04:04:16;12.57;;;3.50;;
24685;SDS011;12804;51.176;4.452;2024-02-15T04:06:42;10.23;;;3.38;;
24685;SDS011;12804;51.176;4.452;2024-02-15T04:09:08;11.25;;;3.45;;
24685;SDS011;12804;51.176;4.452;2024-02-15T04:11:36;8.18;;;3.55;;
24685;SDS011;12804;51.176;4.452;2024-02-15T04:14:03;8.07;;;3.30;;
24685;SDS011;12804;51.176;4.452;2024-02-15T04:16:29;7.47;;;3.75;;
24685;SDS011;12804;51.176;4.452;2024-02-15T04:18:56;9.95;;;2.70;;
24685;SDS011;12804;51.176;4.452;2024-02-15T04:21:23;9.63;;;3.35;;
24685;SDS011;12804;51.176;4.452;2024-02-15T04:23:49;26.42;;;13.50;;
24685;SDS011;12804;51.176;4.452;2024-02-15T04:26:17;7.03;;;2.78;;
24685;SDS011;12804;51.176;4.452;2024-02-15T04:28:44;5.78;;;2.70;;
24685;SDS011;12804;51.176;4.452;2024-02-15T04:31:13;9.75;;;3.08;;
24685;SDS011;12804;51.176;4.452;2024-02-15T04:33:40;7.15;;;2.92;;
24685;SDS011;12804;51.176;4.452;2024-02-15T04:36:06;6.80;;;3.08;;
24685;SDS011;12804;51.176;4.452;2024-02-15T04:38:32;7.97;;;2.95;;
24685;SDS011;12804;51.176;4.452;2024-02-15T04:41:01;8.98;;;3.10;;
24685;SDS011;12804;51.176;4.452;2024-02-15T04:43:29;6.93;;;2.80;;
24685;SDS011;12804;51.176;4.452;2024-02-15T04:45:55;9.18;;;2.83;;
24685;SDS011;12804;51.176;4.452;2024-02-15T04:48:21;8.15;;;2.95;;
24685;SDS011;12804;51.176;4.452;2024-02-15T04:50:50;9.68;;;2.88;;
24685;SDS011;12804;51.176;4.452;2024-02-15T04:53:16;7.20;;;2.92;;
24685;SDS011;12804;51.176;4.452;2024-02-15T04:55:42;8.38;;;2.50;;
24685;SDS011;12804;51.176;4.452;2024-02-15T04:58:09;8.15;;;2.65;;
24685;SDS011;12804;51.176;4.452;2024-02-15T05:00:35;9.90;;;3.47;;
24685;SDS011;12804;51.176;4.452;2024-02-15T05:03:02;8.55;;;3.03;;
24685;SDS011;12804;51.176;4.452;2024-02-15T05:05:29;7.80;;;2.67;;
24685;SDS011;12804;51.176;4.452;2024-02-15T05:07:55;6.55;;;2.70;;
24685;SDS011;12804;51.176;4.452;2024-02-15T05:10:26;6.80;;;2.70;;
24685;SDS011;12804;51.176;4.452;2024-02-15T05:12:52;9.93;;;2.95;;
24685;SDS011;12804;51.176;4.452;2024-02-15T05:15:19;6.50;;;2.45;;
24685;SDS011;12804;51.176;4.452;2024-02-15T05:17:48;6.25;;;2.63;;
24685;SDS011;12804;51.176;4.452;2024-02-15T05:20:14;6.97;;;2.63;;
24685;SDS011;12804;51.176;4.452;2024-02-15T05:22:41;6.65;;;3.15;;
24685;SDS011;12804;51.176;4.452;2024-02-15T05:25:11;7.55;;;2.80;;
24685;SDS011;12804;51.176;4.452;2024-02-15T05:27:37;8.05;;;3.03;;
24685;SDS011;12804;51.176;4.452;2024-02-15T05:30:03;6.90;;;2.75;;
24685;SDS011;12804;51.176;4.452;2024-02-15T05:32:32;6.18;;;2.65;;
24685;SDS011;12804;51.176;4.452;2024-02-15T05:35:00;6.65;;;2.70;;
24685;SDS011;12804;51.176;4.452;2024-02-15T05:37:27;4.65;;;2.45;;
24685;SDS011;12804;51.176;4.452;2024-02-15T05:39:53;10.43;;;3.00;;
24685;SDS011;12804;51.176;4.452;2024-02-15T05:42:19;5.72;;;2.67;;
24685;SDS011;12804;51.176;4.452;2024-02-15T05:44:44;7.35;;;2.72;;
24685;SDS011;12804;51.176;4.452;2024-02-15T05:47:11;9.75;;;3.17;;
24685;SDS011;12804;51.176;4.452;2024-02-15T05:49:36;4.32;;;2.42;;
24685;SDS011;12804;51.176;4.452;2024-02-15T05:52:02;9.07;;;3.05;;
24685;SDS011;12804;51.176;4.452;2024-02-15T05:54:28;6.35;;;2.58;;
24685;SDS011;12804;51.176;4.452;2024-02-15T05:56:54;8.05;;;2.63;;
24685;SDS011;12804;51.176;4.452;2024-02-15T05:59:20;8.05;;;2.55;;
24685;SDS011;12804;51.176;4.452;2024-02-15T06:01:46;4.47;;;2.38;;
24685;SDS011;12804;51.176;4.452;2024-02-15T06:04:14;8.07;;;2.30;;
24685;SDS011;12804;51.176;4.452;2024-02-15T06:06:40;5.78;;;2.47;;
24685;SDS011;12804;51.176;4.452;2024-02-15T06:09:06;7.35;;;2.67;;
24685;SDS011;12804;51.176;4.452;2024-02-15T06:11:32;7.78;;;2.70;;
24685;SDS011;12804;51.176;4.452;2024-02-15T06:13:58;6.50;;;2.60;;
24685;SDS011;12804;51.176;4.452;2024-02-15T06:16:24;6.38;;;2.50;;
24685;SDS011;12804;51.176;4.452;2024-02-15T06:18:49;8.13;;;2.75;;
24685;SDS011;12804;51.176;4.452;2024-02-15T06:21:15;6.07;;;2.50;;
24685;SDS011;12804;51.176;4.452;2024-02-15T06:23:42;8.50;;;2.55;;
24685;SDS011;12804;51.176;4.452;2024-02-15T06:26:08;6.70;;;2.97;;
24685;SDS011;12804;51.176;4.452;2024-02-15T06:28:36;7.13;;;2.35;;
24685;SDS011;12804;51.176;4.452;2024-02-15T06:31:21;8.15;;;2.72;;
24685;SDS011;12804;51.176;4.452;2024-02-15T06:34:05;7.35;;;2.65;;
24685;SDS011;12804;51.176;4.452;2024-02-15T06:36:51;9.23;;;2.83;;
24685;SDS011;12804;51.176;4.452;2024-02-15T06:39:37;5.88;;;2.67;;
24685;SDS011;12804;51.176;4.452;2024-02-15T06:42:06;9.00;;;2.58;;
24685;SDS011;12804;51.176;4.452;2024-02-15T06:44:32;11.60;;;3.28;;
24685;SDS011;12804;51.176;4.452;2024-02-15T06:46:59;9.23;;;3.22;;
24685;SDS011;12804;51.176;4.452;2024-02-15T06:49:25;6.30;;;2.45;;
24685;SDS011;12804;51.176;4.452;2024-02-15T06:51:51;6.95;;;2.88;;
24685;SDS011;12804;51.176;4.452;2024-02-15T06:54:17;7.38;;;2.40;;
24685;SDS011;12804;51.176;4.452;2024-02-15T06:56:44;4.20;;;1.98;;
24685;SDS011;12804;51.176;4.452;2024-02-15T06:59:13;11.38;;;2.72;;
24685;SDS011;12804;51.176;4.452;2024-02-15T07:01:42;8.10;;;2.08;;
24685;SDS011;12804;51.176;4.452;2024-02-15T07:04:08;6.00;;;2.40;;
24685;SDS011;12804;51.176;4.452;2024-02-15T07:06:37;5.35;;;2.28;;
24685;SDS011;12804;51.176;4.452;2024-02-15T07:09:03;3.80;;;2.17;;
24685;SDS011;12804;51.176;4.452;2024-02-15T07:11:32;5.68;;;2.58;;
24685;SDS011;12804;51.176;4.452;2024-02-15T07:14:01;6.18;;;2.30;;
24685;SDS011;12804;51.176;4.452;2024-02-15T07:16:29;4.30;;;2.17;;
24685;SDS011;12804;51.176;4.452;2024-02-15T07:18:55;6.75;;;2.15;;
24685;SDS011;12804;51.176;4.452;2024-02-15T07:21:21;7.90;;;2.20;;
24685;SDS011;12804;51.176;4.452;2024-02-15T07:23:52;7.35;;;2.42;;
24685;SDS011;12804;51.176;4.452;2024-02-15T07:26:20;9.88;;;2.20;;
24685;SDS011;12804;51.176;4.452;2024-02-15T07:28:50;5.85;;;1.98;;
24685;SDS011;12804;51.176;4.452;2024-02-15T07:31:18;5.80;;;2.08;;
24685;SDS011;12804;51.176;4.452;2024-02-15T07:33:44;8.05;;;2.15;;
24685;SDS011;12804;51.176;4.452;2024-02-15T07:36:10;5.20;;;2.13;;
24685;SDS011;12804;51.176;4.452;2024-02-15T07:38:36;6.78;;;1.80;;
24685;SDS011;12804;51.176;4.452;2024-02-15T07:41:01;11.40;;;2.03;;
24685;SDS011;12804;51.176;4.452;2024-02-15T07:43:28;5.38;;;1.63;;
24685;SDS011;12804;51.176;4.452;2024-02-15T07:45:54;3.45;;;1.30;;
24685;SDS011;12804;51.176;4.452;2024-02-15T07:48:20;6.78;;;1.77;;
24685;SDS011;12804;51.176;4.452;2024-02-15T07:50:45;5.80;;;1.60;;
24685;SDS011;12804;51.176;4.452;2024-02-15T07:53:11;5.30;;;1.92;;
24685;SDS011;12804;51.176;4.452;2024-02-15T07:55:38;4.18;;;1.40;;
24685;SDS011;12804;51.176;4.452;2024-02-15T07:58:04;5.13;;;1.50;;
24685;SDS011;12804;51.176;4.452;2024-02-15T08:00:30;9.32;;;1.75;;
24685;SDS011;12804;51.176;4.452;2024-02-15T08:02:56;3.53;;;1.40;;
24685;SDS011;12804;51.176;4.452;2024-02-15T08:05:24;6.85;;;1.63;;
24685;SDS011;12804;51.176;4.452;2024-02-15T08:07:50;6.47;;;1.55;;
24685;SDS011;12804;51.176;4.452;2024-02-15T08:10:17;5.20;;;1.50;;
24685;SDS011;12804;51.176;4.452;2024-02-15T08:12:44;5.78;;;1.75;;
24685;SDS011;12804;51.176;4.452;2024-02-15T08:15:11;3.40;;;1.60;;
24685;SDS011;12804;51.176;4.452;2024-02-15T08:17:38;4.40;;;1.40;;
24685;SDS011;12804;51.176;4.452;2024-02-15T08:20:06;3.17;;;1.38;;
24685;SDS011;12804;51.176;4.452;2024-02-15T08:22:36;5.10;;;1.60;;
24685;SDS011;12804;51.176;4.452;2024-02-15T08:25:11;4.68;;;1.67;;
24685;SDS011;12804;51.176;4.452;2024-02-15T08:27:38;4.45;;;1.40;;
24685;SDS011;12804;51.176;4.452;2024-02-15T08:30:12;4.10;;;1.75;;
24685;SDS011;12804;51.176;4.452;2024-02-15T08:32:42;4.78;;;1.77;;
24685;SDS011;12804;51.176;4.452;2024-02-15T08:35:09;4.57;;;1.80;;
24685;SDS011;12804;51.176;4.452;2024-02-15T08:37:35;4.57;;;1.75;;
24685;SDS011;12804;51.176;4.452;2024-02-15T08:40:03;5.43;;;1.83;;
24685;SDS011;12804;51.176;4.452;2024-02-15T08:42:36;5.75;;;2.00;;
24685;SDS011;12804;51.176;4.452;2024-02-15T08:45:03;5.50;;;2.00;;
24685;SDS011;12804;51.176;4.452;2024-02-15T08:47:30;6.80;;;2.00;;
24685;SDS011;12804;51.176;4.452;2024-02-15T08:49:56;6.40;;;1.60;;
24685;SDS011;12804;51.176;4.452;2024-02-15T08:52:24;6.40;;;2.10;;
24685;SDS011;12804;51.176;4.452;2024-02-15T08:54:52;4.60;;;2.10;;
24685;SDS011;12804;51.176;4.452;2024-02-15T08:57:17;4.20;;;2.00;;
24685;SDS011;12804;51.176;4.452;2024-02-15T08:59:44;5.95;;;2.10;;
24685;SDS011;12804;51.176;4.452;2024-02-15T09:02:10;5.05;;;1.98;;
24685;SDS011;12804;51.176;4.452;2024-02-15T09:04:36;5.43;;;2.20;;
24685;SDS011;12804;51.176;4.452;2024-02-15T09:07:01;7.05;;;2.03;;
24685;SDS011;12804;51.176;4.452;2024-02-15T09:09:29;6.72;;;2.05;;
24685;SDS011;12804;51.176;4.452;2024-02-15T09:11:56;8.45;;;1.90;;
24685;SDS011;12804;51.176;4.452;2024-02-15T09:14:22;4.13;;;1.70;;
24685;SDS011;12804;51.176;4.452;2024-02-15T09:16:48;3.72;;;1.70;;
24685;SDS011;12804;51.176;4.452;2024-02-15T09:19:14;3.42;;;1.55;;
24685;SDS011;12804;51.176;4.452;2024-02-15T09:21:39;4.75;;;1.88;;
24685;SDS011;12804;51.176;4.452;2024-02-15T09:24:05;4.55;;;2.25;;
24685;SDS011;12804;51.176;4.452;2024-02-15T09:26:31;6.15;;;2.00;;
24685;SDS011;12804;51.176;4.452;2024-02-15T09:28:57;5.07;;;2.25;;
24685;SDS011;12804;51.176;4.452;2024-02-15T09:31:23;5.53;;;2.28;;
24685;SDS011;12804;51.176;4.452;2024-02-15T09:33:50;10.88;;;2.60;;
24685;SDS011;12804;51.176;4.452;2024-02-15T09:36:16;10.57;;;3.10;;
24685;SDS011;12804;51.176;4.452;2024-02-15T09:38:41;10.75;;;3.33;;
24685;SDS011;12804;51.176;4.452;2024-02-15T09:41:07;9.90;;;3.10;;
24685;SDS011;12804;51.176;4.452;2024-02-15T09:43:34;7.25;;;3.15;;
24685;SDS011;12804;51.176;4.452;2024-02-15T09:46:00;9.80;;;3.30;;
24685;SDS011;12804;51.176;4.452;2024-02-15T09:48:29;10.38;;;3.50;;
24685;SDS011;12804;51.176;4.452;2024-02-15T09:50:57;9.50;;;2.92;;
24685;SDS011;12804;51.176;4.452;2024-02-15T09:53:23;8.52;;;3.53;;
24685;SDS011;12804;51.176;4.452;2024-02-15T09:55:51;8.65;;;3.40;;
24685;SDS011;12804;51.176;4.452;2024-02-15T09:58:19;10.07;;;3.00;;
24685;SDS011;12804;51.176;4.452;2024-02-15T10:00:48;11.90;;;2.88;;
24685;SDS011;12804;51.176;4.452;2024-02-15T10:03:16;8.05;;;3.13;;
24685;SDS011;12804;51.176;4.452;2024-02-15T10:05:48;8.57;;;3.13;;
24685;SDS011;12804;51.176;4.452;2024-02-15T10:08:15;8.57;;;3.00;;
24685;SDS011;12804;51.176;4.452;2024-02-15T10:10:40;8.60;;;2.72;;
24685;SDS011;12804;51.176;4.452;2024-02-15T10:13:08;6.75;;;2.85;;
24685;SDS011;12804;51.176;4.452;2024-02-15T10:15:39;6.05;;;2.83;;
24685;SDS011;12804;51.176;4.452;2024-02-15T10:18:10;10.85;;;3.22;;
24685;SDS011;12804;51.176;4.452;2024-02-15T10:20:37;6.60;;;2.88;;
24685;SDS011;12804;51.176;4.452;2024-02-15T10:23:13;4.25;;;2.70;;
24685;SDS011;12804;51.176;4.452;2024-02-15T10:25:43;10.95;;;2.38;;
24685;SDS011;12804;51.176;4.452;2024-02-15T10:28:12;7.13;;;2.28;;
24685;SDS011;12804;51.176;4.452;2024-02-15T10:30:43;5.10;;;2.40;;
24685;SDS011;12804;51.176;4.452;2024-02-15T10:33:17;7.13;;;2.42;;
24685;SDS011;12804;51.176;4.452;2024-02-15T10:35:47;5.07;;;1.88;;
24685;SDS011;12804;51.176;4.452;2024-02-15T10:38:14;5.90;;;1.83;;
24685;SDS011;12804;51.176;4.452;2024-02-15T10:40:40;7.00;;;2.22;;
24685;SDS011;12804;51.176;4.452;2024-02-15T10:43:08;5.20;;;1.75;;
24685;SDS011;12804;51.176;4.452;2024-02-15T10:45:38;5.60;;;2.10;;
24685;SDS011;12804;51.176;4.452;2024-02-15T10:48:10;5.88;;;1.90;;
24685;SDS011;12804;51.176;4.452;2024-02-15T10:50:39;4.25;;;1.90;;
24685;SDS011;12804;51.176;4.452;2024-02-15T10:53:26;8.32;;;1.90;;
24685;SDS011;12804;51.176;4.452;2024-02-15T10:58:31;4.05;;;1.45;;
24685;SDS011;12804;51.176;4.452;2024-02-15T11:01:00;3.00;;;1.90;;
24685;SDS011;12804;51.176;4.452;2024-02-15T11:03:30;4.22;;;1.33;;
24685;SDS011;12804;51.176;4.452;2024-02-15T11:06:07;4.15;;;1.33;;
24685;SDS011;12804;51.176;4.452;2024-02-15T11:08:36;5.68;;;1.38;;
24685;SDS011;12804;51.176;4.452;2024-02-15T11:11:03;5.00;;;1.15;;
24685;SDS011;12804;51.176;4.452;2024-02-15T11:13:30;5.28;;;1.33;;
24685;SDS011;12804;51.176;4.452;2024-02-15T11:15:56;3.92;;;1.20;;
24685;SDS011;12804;51.176;4.452;2024-02-15T11:26:58;1.77;;;0.90;;
24685;SDS011;12804;51.176;4.452;2024-02-15T11:35:08;2.33;;;0.98;;
24685;SDS011;12804;51.176;4.452;2024-02-15T11:40:15;2.17;;;1.02;;
24685;SDS011;12804;51.176;4.452;2024-02-15T11:42:44;2.33;;;1.20;;
24685;SDS011;12804;51.176;4.452;2024-02-15T11:45:11;2.78;;;1.08;;
24685;SDS011;12804;51.176;4.452;2024-02-15T11:47:38;1.73;;;0.77;;
24685;SDS011;12804;51.176;4.452;2024-02-15T11:50:08;2.20;;;0.90;;
24685;SDS011;12804;51.176;4.452;2024-02-15T11:52:38;3.05;;;0.90;;
24685;SDS011;12804;51.176;4.452;2024-02-15T11:55:06;4.15;;;1.05;;
24685;SDS011;12804;51.176;4.452;2024-02-15T11:57:36;2.00;;;0.90;;
24685;SDS011;12804;51.176;4.452;2024-02-15T12:00:22;2.42;;;1.05;;
24685;SDS011;12804;51.176;4.452;2024-02-15T12:03:10;3.03;;;0.80;;
24685;SDS011;12804;51.176;4.452;2024-02-15T12:05:57;3.03;;;0.80;;
24685;SDS011;12804;51.176;4.452;2024-02-15T12:08:48;3.33;;;0.90;;
24685;SDS011;12804;51.176;4.452;2024-02-15T12:11:34;3.03;;;1.05;;
24685;SDS011;12804;51.176;4.452;2024-02-15T12:14:19;3.40;;;0.90;;
24685;SDS011;12804;51.176;4.452;2024-02-15T12:19:49;3.97;;;0.90;;
24685;SDS011;12804;51.176;4.452;2024-02-15T12:22:20;2.38;;;0.90;;
24685;SDS011;12804;51.176;4.452;2024-02-15T12:24:56;3.00;;;0.90;;
24685;SDS011;12804;51.176;4.452;2024-02-15T12:27:23;4.53;;;0.90;;
24685;SDS011;12804;51.176;4.452;2024-02-15T12:29:55;2.10;;;0.73;;
24685;SDS011;12804;51.176;4.452;2024-02-15T12:32:23;4.22;;;0.80;;
24685;SDS011;12804;51.176;4.452;2024-02-15T12:34:53;1.90;;;0.68;;
24685;SDS011;12804;51.176;4.452;2024-02-15T12:37:35;5.13;;;1.15;;
24685;SDS011;12804;51.176;4.452;2024-02-15T12:40:16;1.83;;;0.85;;
24685;SDS011;12804;51.176;4.452;2024-02-15T12:42:43;2.30;;;0.95;;
24685;SDS011;12804;51.176;4.452;2024-02-15T12:45:19;1.95;;;0.88;;
24685;SDS011;12804;51.176;4.452;2024-02-15T12:47:51;2.85;;;0.90;;
24685;SDS011;12804;51.176;4.452;2024-02-15T12:50:19;1.10;;;0.68;;
24685;SDS011;12804;51.176;4.452;2024-02-15T12:52:47;1.90;;;0.60;;
24685;SDS011;12804;51.176;4.452;2024-02-15T12:55:15;2.03;;;0.52;;
24685;SDS011;12804;51.176;4.452;2024-02-15T12:57:48;3.08;;;0.70;;
24685;SDS011;12804;51.176;4.452;2024-02-15T13:00:26;2.58;;;0.60;;
24685;SDS011;12804;51.176;4.452;2024-02-15T13:02:57;1.75;;;0.70;;
24685;SDS011;12804;51.176;4.452;2024-02-15T13:05:26;3.22;;;0.75;;
24685;SDS011;12804;51.176;4.452;2024-02-15T13:07:53;2.50;;;0.77;;
24685;SDS011;12804;51.176;4.452;2024-02-15T13:10:43;2.42;;;0.70;;
24685;SDS011;12804;51.176;4.452;2024-02-15T13:13:08;2.55;;;0.80;;
24685;SDS011;12804;51.176;4.452;2024-02-15T13:15:34;2.13;;;0.73;;
24685;SDS011;12804;51.176;4.452;2024-02-15T13:18:02;1.92;;;0.77;;
24685;SDS011;12804;51.176;4.452;2024-02-15T13:20:30;2.83;;;1.27;;
24685;SDS011;12804;51.176;4.452;2024-02-15T13:23:09;3.05;;;0.80;;
24685;SDS011;12804;51.176;4.452;2024-02-15T13:25:48;1.85;;;1.00;;
24685;SDS011;12804;51.176;4.452;2024-02-15T13:28:15;3.03;;;0.90;;
24685;SDS011;12804;51.176;4.452;2024-02-15T13:30:41;2.50;;;0.90;;
24685;SDS011;12804;51.176;4.452;2024-02-15T13:33:10;2.35;;;0.90;;
24685;SDS011;12804;51.176;4.452;2024-02-15T13:35:39;3.35;;;0.90;;
24685;SDS011;12804;51.176;4.452;2024-02-15T13:38:04;3.33;;;0.82;;
24685;SDS011;12804;51.176;4.452;2024-02-15T13:40:34;3.10;;;0.73;;
24685;SDS011;12804;51.176;4.452;2024-02-15T13:43:00;2.47;;;0.80;;
24685;SDS011;12804;51.176;4.452;2024-02-15T13:45:30;1.20;;;0.75;;
24685;SDS011;12804;51.176;4.452;2024-02-15T13:47:58;2.55;;;1.05;;
24685;SDS011;12804;51.176;4.452;2024-02-15T13:50:28;2.38;;;1.10;;
24685;SDS011;12804;51.176;4.452;2024-02-15T13:52:55;2.53;;;0.73;;
24685;SDS011;12804;51.176;4.452;2024-02-15T13:55:21;1.50;;;0.70;;
24685;SDS011;12804;51.176;4.452;2024-02-15T13:57:47;3.17;;;0.80;;
24685;SDS011;12804;51.176;4.452;2024-02-15T14:00:16;2.13;;;0.65;;
24685;SDS011;12804;51.176;4.452;2024-02-15T14:02:53;1.02;;;0.60;;
24685;SDS011;12804;51.176;4.452;2024-02-15T14:05:20;1.02;;;0.50;;
24685;SDS011;12804;51.176;4.452;2024-02-15T14:07:51;2.13;;;0.70;;
24685;SDS011;12804;51.176;4.452;2024-02-15T14:10:20;2.63;;;0.75;;
24685;SDS011;12804;51.176;4.452;2024-02-15T14:12:50;4.05;;;0.73;;
24685;SDS011;12804;51.176;4.452;2024-02-15T14:15:30;2.95;;;0.80;;
24685;SDS011;12804;51.176;4.452;2024-02-15T14:18:05;3.53;;;0.60;;
24685;SDS011;12804;51.176;4.452;2024-02-15T14:20:31;2.45;;;0.65;;
24685;SDS011;12804;51.176;4.452;2024-02-15T14:22:57;2.75;;;0.60;;
24685;SDS011;12804;51.176;4.452;2024-02-15T14:25:28;2.05;;;0.60;;
24685;SDS011;12804;51.176;4.452;2024-02-15T14:27:56;2.63;;;0.85;;
24685;SDS011;12804;51.176;4.452;2024-02-15T14:30:23;2.05;;;0.80;;
24685;SDS011;12804;51.176;4.452;2024-02-15T14:33:11;3.53;;;0.50;;
24685;SDS011;12804;51.176;4.452;2024-02-15T14:35:40;1.27;;;0.52;;
24685;SDS011;12804;51.176;4.452;2024-02-15T14:38:11;1.52;;;0.70;;
24685;SDS011;12804;51.176;4.452;2024-02-15T14:43:05;1.17;;;0.70;;
24685;SDS011;12804;51.176;4.452;2024-02-15T14:45:36;1.10;;;0.60;;
24685;SDS011;12804;51.176;4.452;2024-02-15T14:48:02;2.60;;;0.70;;
24685;SDS011;12804;51.176;4.452;2024-02-15T14:50:28;1.73;;;0.75;;
24685;SDS011;12804;51.176;4.452;2024-02-15T14:52:54;1.60;;;0.60;;
24685;SDS011;12804;51.176;4.452;2024-02-15T14:55:20;1.55;;;0.40;;
24685;SDS011;12804;51.176;4.452;2024-02-15T14:57:46;1.10;;;0.50;;
24685;SDS011;12804;51.176;4.452;2024-02-15T15:00:12;4.10;;;0.60;;
24685;SDS011;12804;51.176;4.452;2024-02-15T15:02:45;2.63;;;0.55;;
24685;SDS011;12804;51.176;4.452;2024-02-15T15:05:12;1.88;;;0.70;;
24685;SDS011;12804;51.176;4.452;2024-02-15T15:07:57;2.58;;;0.70;;
24685;SDS011;12804;51.176;4.452;2024-02-15T15:10:42;3.10;;;1.27;;
24685;SDS011;12804;51.176;4.452;2024-02-15T15:13:28;2.80;;;0.70;;
24685;SDS011;12804;51.176;4.452;2024-02-15T15:15:54;0.90;;;0.60;;
24685;SDS011;12804;51.176;4.452;2024-02-15T15:18:19;1.90;;;0.60;;